sensor_id;sensor_type;location;lat;lon;timestamp;pressure;altitude;pressure_sealevel;temperature;humidity
55801;BME280;41730;51.960;20.158;2022-08-01T00:00:13;99874.42;;;16.89;84.02
55801;BME280;41730;51.960;20.158;2022-08-01T00:02:42;99873.22;;;16.82;84.30
55801;BME280;41730;51.960;20.158;2022-08-01T00:05:12;99874.08;;;16.89;84.33
55801;BME280;41730;51.960;20.158;2022-08-01T00:07:41;99870.81;;;16.89;84.22
55801;BME280;41730;51.960;20.158;2022-08-01T00:10:13;99871.10;;;16.85;84.20
55801;BME280;41730;51.960;20.158;2022-08-01T00:12:43;99871.23;;;16.95;83.93
55801;BME280;41730;51.960;20.158;2022-08-01T00:15:15;99869.04;;;17.01;83.72
55801;BME280;41730;51.960;20.158;2022-08-01T00:17:45;99869.75;;;17.08;83.43
55801;BME280;41730;51.960;20.158;2022-08-01T00:20:15;99867.18;;;17.17;83.16
55801;BME280;41730;51.960;20.158;2022-08-01T00:22:44;99865.83;;;17.05;83.08
55801;BME280;41730;51.960;20.158;2022-08-01T00:25:14;99862.05;;;17.02;83.41
55801;BME280;41730;51.960;20.158;2022-08-01T00:27:43;99862.39;;;17.01;83.36
55801;BME280;41730;51.960;20.158;2022-08-01T00:30:15;99861.88;;;17.05;83.15
55801;BME280;41730;51.960;20.158;2022-08-01T00:32:44;99859.61;;;17.05;82.77
55801;BME280;41730;51.960;20.158;2022-08-01T00:35:13;99859.02;;;16.95;83.04
55801;BME280;41730;51.960;20.158;2022-08-01T00:37:43;99859.15;;;16.89;83.03
55801;BME280;41730;51.960;20.158;2022-08-01T00:40:13;99858.63;;;16.84;83.16
55801;BME280;41730;51.960;20.158;2022-08-01T00:42:42;99865.15;;;16.79;83.27
55801;BME280;41730;51.960;20.158;2022-08-01T00:45:12;99864.23;;;16.70;83.35
55801;BME280;41730;51.960;20.158;2022-08-01T00:47:41;99868.95;;;16.63;83.54
55801;BME280;41730;51.960;20.158;2022-08-01T00:50:11;99863.73;;;16.58;83.73
55801;BME280;41730;51.960;20.158;2022-08-01T00:52:41;99860.80;;;16.60;83.43
55801;BME280;41730;51.960;20.158;2022-08-01T00:55:19;99859.01;;;16.54;83.68
55801;BME280;41730;51.960;20.158;2022-08-01T00:57:49;99862.20;;;16.51;83.77
55801;BME280;41730;51.960;20.158;2022-08-01T01:00:34;99863.75;;;16.65;83.32
55801;BME280;41730;51.960;20.158;2022-08-01T01:03:23;99864.18;;;16.71;82.43
55801;BME280;41730;51.960;20.158;2022-08-01T01:06:23;99865.79;;;16.57;82.97
55801;BME280;41730;51.960;20.158;2022-08-01T01:09:07;99866.48;;;16.59;82.97
55801;BME280;41730;51.960;20.158;2022-08-01T01:11:46;99867.14;;;16.53;82.95
55801;BME280;41730;51.960;20.158;2022-08-01T01:14:23;99866.24;;;16.38;83.43
55801;BME280;41730;51.960;20.158;2022-08-01T01:16:58;99864.87;;;16.27;83.81
55801;BME280;41730;51.960;20.158;2022-08-01T01:19:31;99867.33;;;16.24;83.88
55801;BME280;41730;51.960;20.158;2022-08-01T01:22:17;99866.13;;;16.29;83.38
55801;BME280;41730;51.960;20.158;2022-08-01T01:25:04;99869.27;;;16.35;82.98
55801;BME280;41730;51.960;20.158;2022-08-01T01:27:50;99869.53;;;16.37;82.79
55801;BME280;41730;51.960;20.158;2022-08-01T01:30:21;99867.20;;;16.31;82.46
55801;BME280;41730;51.960;20.158;2022-08-01T01:32:54;99867.44;;;16.23;82.83
55801;BME280;41730;51.960;20.158;2022-08-01T01:35:28;99865.92;;;16.29;82.66
55801;BME280;41730;51.960;20.158;2022-08-01T01:38:04;99869.24;;;16.21;82.68
55801;BME280;41730;51.960;20.158;2022-08-01T01:40:34;99869.61;;;16.13;82.84
55801;BME280;41730;51.960;20.158;2022-08-01T01:43:06;99864.56;;;16.10;82.85
55801;BME280;41730;51.960;20.158;2022-08-01T01:45:38;99867.45;;;16.12;82.68
55801;BME280;41730;51.960;20.158;2022-08-01T01:48:08;99865.29;;;16.14;82.36
55801;BME280;41730;51.960;20.158;2022-08-01T01:50:39;99863.61;;;16.20;81.88
55801;BME280;41730;51.960;20.158;2022-08-01T01:53:11;99867.91;;;16.22;81.71
55801;BME280;41730;51.960;20.158;2022-08-01T01:55:45;99868.83;;;16.23;81.44
55801;BME280;41730;51.960;20.158;2022-08-01T01:58:16;99868.03;;;16.06;81.89
55801;BME280;41730;51.960;20.158;2022-08-01T02:00:48;99867.09;;;15.99;82.24
55801;BME280;41730;51.960;20.158;2022-08-01T02:03:19;99869.31;;;15.98;82.17
55801;BME280;41730;51.960;20.158;2022-08-01T02:05:50;99872.09;;;16.04;81.76
55801;BME280;41730;51.960;20.158;2022-08-01T02:08:21;99870.77;;;16.03;81.74
55801;BME280;41730;51.960;20.158;2022-08-01T02:10:53;99869.05;;;16.06;81.49
55801;BME280;41730;51.960;20.158;2022-08-01T02:13:42;99870.94;;;15.96;81.74
55801;BME280;41730;51.960;20.158;2022-08-01T02:16:12;99868.61;;;15.92;81.65
55801;BME280;41730;51.960;20.158;2022-08-01T02:18:43;99867.75;;;15.85;81.91
55801;BME280;41730;51.960;20.158;2022-08-01T02:21:16;99865.75;;;15.80;82.11
55801;BME280;41730;51.960;20.158;2022-08-01T02:23:49;99865.66;;;15.76;82.03
55801;BME280;41730;51.960;20.158;2022-08-01T02:26:19;99865.69;;;15.75;81.88
55801;BME280;41730;51.960;20.158;2022-08-01T02:28:50;99868.48;;;15.90;81.35
55801;BME280;41730;51.960;20.158;2022-08-01T02:31:23;99872.02;;;16.01;80.81
55801;BME280;41730;51.960;20.158;2022-08-01T02:33:57;99873.38;;;15.92;80.72
55801;BME280;41730;51.960;20.158;2022-08-01T02:36:29;99871.05;;;15.80;81.39
55801;BME280;41730;51.960;20.158;2022-08-01T02:39:03;99867.86;;;15.83;81.17
55801;BME280;41730;51.960;20.158;2022-08-01T02:41:35;99867.92;;;15.74;81.33
55801;BME280;41730;51.960;20.158;2022-08-01T02:44:09;99867.92;;;15.74;81.33
55801;BME280;41730;51.960;20.158;2022-08-01T02:46:40;99870.25;;;15.71;81.40
55801;BME280;41730;51.960;20.158;2022-08-01T02:49:13;99867.32;;;15.65;81.08
55801;BME280;41730;51.960;20.158;2022-08-01T02:51:44;99870.80;;;15.47;82.01
55801;BME280;41730;51.960;20.158;2022-08-01T02:54:17;99873.98;;;15.51;81.83
55801;BME280;41730;51.960;20.158;2022-08-01T02:56:48;99869.73;;;15.64;81.24
55801;BME280;41730;51.960;20.158;2022-08-01T02:59:21;99869.34;;;15.66;81.10
55801;BME280;41730;51.960;20.158;2022-08-01T03:01:55;99866.55;;;15.58;81.23
55801;BME280;41730;51.960;20.158;2022-08-01T03:04:25;99867.69;;;15.48;81.76
55801;BME280;41730;51.960;20.158;2022-08-01T03:06:55;99863.74;;;15.43;82.04
55801;BME280;41730;51.960;20.158;2022-08-01T03:09:28;99863.70;;;15.54;81.56
55801;BME280;41730;51.960;20.158;2022-08-01T03:12:02;99861.39;;;15.56;81.51
55801;BME280;41730;51.960;20.158;2022-08-01T03:14:33;99861.34;;;15.57;81.21
55801;BME280;41730;51.960;20.158;2022-08-01T03:17:05;99867.96;;;15.48;81.64
55801;BME280;41730;51.960;20.158;2022-08-01T03:19:36;99864.34;;;15.40;81.80
55801;BME280;41730;51.960;20.158;2022-08-01T03:22:07;99867.09;;;15.36;82.16
55801;BME280;41730;51.960;20.158;2022-08-01T03:24:38;99865.90;;;15.41;81.84
55801;BME280;41730;51.960;20.158;2022-08-01T03:27:09;99869.71;;;15.44;81.64
55801;BME280;41730;51.960;20.158;2022-08-01T03:29:41;99868.52;;;15.41;81.89
55801;BME280;41730;51.960;20.158;2022-08-01T03:32:22;99872.29;;;15.47;81.71
55801;BME280;41730;51.960;20.158;2022-08-01T03:35:14;99875.14;;;15.51;81.78
55801;BME280;41730;51.960;20.158;2022-08-01T03:38:04;99876.48;;;15.57;81.35
55801;BME280;41730;51.960;20.158;2022-08-01T03:40:55;99881.37;;;15.56;81.38
55801;BME280;41730;51.960;20.158;2022-08-01T03:43:44;99882.89;;;15.50;81.66
55801;BME280;41730;51.960;20.158;2022-08-01T03:46:43;99884.31;;;15.50;81.60
55801;BME280;41730;51.960;20.158;2022-08-01T03:49:34;99885.46;;;15.57;81.46
55801;BME280;41730;51.960;20.158;2022-08-01T03:52:29;99884.66;;;15.55;81.38
55801;BME280;41730;51.960;20.158;2022-08-01T03:55:19;99882.21;;;15.53;81.58
55801;BME280;41730;51.960;20.158;2022-08-01T03:58:09;99884.38;;;15.61;80.94
55801;BME280;41730;51.960;20.158;2022-08-01T04:00:59;99885.17;;;15.60;80.88
55801;BME280;41730;51.960;20.158;2022-08-01T04:03:55;99889.54;;;15.61;80.84
55801;BME280;41730;51.960;20.158;2022-08-01T04:06:47;99889.67;;;15.61;81.08
55801;BME280;41730;51.960;20.158;2022-08-01T04:09:36;99896.73;;;15.68;80.85
55801;BME280;41730;51.960;20.158;2022-08-01T04:12:15;99897.35;;;15.63;81.09
55801;BME280;41730;51.960;20.158;2022-08-01T04:14:45;99896.88;;;15.74;80.60
55801;BME280;41730;51.960;20.158;2022-08-01T04:17:14;99895.73;;;15.80;81.49
55801;BME280;41730;51.960;20.158;2022-08-01T04:19:44;99897.23;;;16.23;83.62
55801;BME280;41730;51.960;20.158;2022-08-01T04:22:15;99895.93;;;17.00;83.16
55801;BME280;41730;51.960;20.158;2022-08-01T04:24:47;99892.56;;;17.87;81.13
55801;BME280;41730;51.960;20.158;2022-08-01T04:27:26;99891.87;;;18.74;79.07
55801;BME280;41730;51.960;20.158;2022-08-01T04:30:19;99894.74;;;19.67;76.62
55801;BME280;41730;51.960;20.158;2022-08-01T04:32:50;99896.02;;;20.27;74.92
55801;BME280;41730;51.960;20.158;2022-08-01T04:35:21;99900.19;;;20.69;74.12
55801;BME280;41730;51.960;20.158;2022-08-01T04:38:13;99900.22;;;21.31;72.83
55801;BME280;41730;51.960;20.158;2022-08-01T04:40:45;99900.45;;;21.63;72.17
55801;BME280;41730;51.960;20.158;2022-08-01T04:43:15;99904.29;;;21.85;71.91
55801;BME280;41730;51.960;20.158;2022-08-01T04:45:45;99900.82;;;22.07;71.57
55801;BME280;41730;51.960;20.158;2022-08-01T04:48:16;99900.34;;;22.35;70.96
55801;BME280;41730;51.960;20.158;2022-08-01T04:50:50;99900.58;;;22.57;70.63
55801;BME280;41730;51.960;20.158;2022-08-01T04:53:21;99908.35;;;22.90;69.61
55801;BME280;41730;51.960;20.158;2022-08-01T04:55:50;99904.88;;;23.08;69.29
55801;BME280;41730;51.960;20.158;2022-08-01T04:58:20;99907.02;;;23.22;68.65
55801;BME280;41730;51.960;20.158;2022-08-01T05:00:49;99907.95;;;23.29;67.85
55801;BME280;41730;51.960;20.158;2022-08-01T05:03:18;99912.22;;;23.27;67.86
55801;BME280;41730;51.960;20.158;2022-08-01T05:05:48;99915.12;;;23.26;67.43
55801;BME280;41730;51.960;20.158;2022-08-01T05:08:17;99912.25;;;23.23;67.66
55801;BME280;41730;51.960;20.158;2022-08-01T05:10:46;99911.50;;;23.30;67.59
55801;BME280;41730;51.960;20.158;2022-08-01T05:13:15;99910.73;;;23.28;67.34
55801;BME280;41730;51.960;20.158;2022-08-01T05:15:45;99909.66;;;23.40;66.91
55801;BME280;41730;51.960;20.158;2022-08-01T05:18:14;99912.38;;;23.50;66.53
55801;BME280;41730;51.960;20.158;2022-08-01T05:20:53;99915.55;;;23.56;66.20
55801;BME280;41730;51.960;20.158;2022-08-01T05:23:22;99914.50;;;23.63;65.58
55801;BME280;41730;51.960;20.158;2022-08-01T05:26:11;99915.91;;;23.66;64.07
55801;BME280;41730;51.960;20.158;2022-08-01T05:28:43;99918.27;;;23.63;63.40
55801;BME280;41730;51.960;20.158;2022-08-01T05:31:12;99917.48;;;23.68;63.66
55801;BME280;41730;51.960;20.158;2022-08-01T05:33:41;99918.56;;;23.72;63.10
55801;BME280;41730;51.960;20.158;2022-08-01T05:36:11;99915.73;;;23.70;63.14
55801;BME280;41730;51.960;20.158;2022-08-01T05:38:40;99918.08;;;23.60;63.37
55801;BME280;41730;51.960;20.158;2022-08-01T05:41:10;99917.54;;;23.46;63.21
55801;BME280;41730;51.960;20.158;2022-08-01T05:43:40;99914.30;;;23.38;63.28
55801;BME280;41730;51.960;20.158;2022-08-01T05:46:09;99914.27;;;23.39;62.58
55801;BME280;41730;51.960;20.158;2022-08-01T05:48:38;99914.06;;;23.24;62.33
55801;BME280;41730;51.960;20.158;2022-08-01T05:51:07;99911.45;;;23.21;62.39
55801;BME280;41730;51.960;20.158;2022-08-01T05:53:37;99913.44;;;23.18;62.38
55801;BME280;41730;51.960;20.158;2022-08-01T05:56:06;99913.29;;;23.02;62.56
55801;BME280;41730;51.960;20.158;2022-08-01T05:58:35;99912.35;;;23.08;62.35
55801;BME280;41730;51.960;20.158;2022-08-01T06:01:05;99917.59;;;23.19;62.21
55801;BME280;41730;51.960;20.158;2022-08-01T06:03:34;99915.21;;;23.36;61.66
55801;BME280;41730;51.960;20.158;2022-08-01T06:06:04;99910.88;;;23.46;61.32
55801;BME280;41730;51.960;20.158;2022-08-01T06:08:33;99910.27;;;23.53;61.22
55801;BME280;41730;51.960;20.158;2022-08-01T06:11:03;99907.99;;;23.60;60.25
55801;BME280;41730;51.960;20.158;2022-08-01T06:13:32;99908.69;;;23.57;60.27
55801;BME280;41730;51.960;20.158;2022-08-01T06:16:16;99908.30;;;23.54;60.43
55801;BME280;41730;51.960;20.158;2022-08-01T06:18:45;99910.05;;;23.57;59.79
55801;BME280;41730;51.960;20.158;2022-08-01T06:21:14;99910.86;;;23.43;59.84
55801;BME280;41730;51.960;20.158;2022-08-01T06:23:44;99909.42;;;23.48;59.78
55801;BME280;41730;51.960;20.158;2022-08-01T06:26:13;99910.21;;;23.52;59.39
55801;BME280;41730;51.960;20.158;2022-08-01T06:28:42;99911.04;;;23.62;59.40
55801;BME280;41730;51.960;20.158;2022-08-01T06:31:12;99915.82;;;23.67;59.57
55801;BME280;41730;51.960;20.158;2022-08-01T06:33:42;99911.65;;;23.73;59.57
55801;BME280;41730;51.960;20.158;2022-08-01T06:36:11;99914.65;;;23.72;59.64
55801;BME280;41730;51.960;20.158;2022-08-01T06:38:40;99915.89;;;23.87;59.31
55801;BME280;41730;51.960;20.158;2022-08-01T06:41:10;99919.94;;;24.00;58.95
55801;BME280;41730;51.960;20.158;2022-08-01T06:43:39;99922.79;;;24.03;58.80
55801;BME280;41730;51.960;20.158;2022-08-01T06:46:08;99925.77;;;24.08;58.44
55801;BME280;41730;51.960;20.158;2022-08-01T06:48:38;99928.17;;;24.08;57.80
55801;BME280;41730;51.960;20.158;2022-08-01T06:51:07;99932.39;;;24.01;57.90
55801;BME280;41730;51.960;20.158;2022-08-01T06:53:37;99932.11;;;23.92;58.32
55801;BME280;41730;51.960;20.158;2022-08-01T06:56:07;99932.63;;;23.98;58.39
55801;BME280;41730;51.960;20.158;2022-08-01T06:58:37;99933.51;;;24.10;58.30
55801;BME280;41730;51.960;20.158;2022-08-01T07:01:07;99927.20;;;24.16;57.85
55801;BME280;41730;51.960;20.158;2022-08-01T07:03:37;99925.35;;;24.39;57.25
55801;BME280;41730;51.960;20.158;2022-08-01T07:06:23;99926.39;;;24.61;56.24
55801;BME280;41730;51.960;20.158;2022-08-01T07:08:53;99923.52;;;24.77;55.17
55801;BME280;41730;51.960;20.158;2022-08-01T07:11:23;99918.81;;;24.77;55.09
55801;BME280;41730;51.960;20.158;2022-08-01T07:13:53;99920.41;;;24.75;55.14
55801;BME280;41730;51.960;20.158;2022-08-01T07:16:22;99919.52;;;24.62;55.29
55801;BME280;41730;51.960;20.158;2022-08-01T07:18:52;99917.23;;;24.69;55.51
55801;BME280;41730;51.960;20.158;2022-08-01T07:21:21;99918.44;;;24.72;55.42
55801;BME280;41730;51.960;20.158;2022-08-01T07:24:10;99914.74;;;24.88;55.70
55801;BME280;41730;51.960;20.158;2022-08-01T07:26:44;99920.55;;;24.96;54.46
55801;BME280;41730;51.960;20.158;2022-08-01T07:29:28;99911.95;;;24.79;54.83
55801;BME280;41730;51.960;20.158;2022-08-01T07:31:58;99917.11;;;24.90;54.85
55801;BME280;41730;51.960;20.158;2022-08-01T07:34:28;99922.88;;;25.04;54.37
55801;BME280;41730;51.960;20.158;2022-08-01T07:36:57;99925.30;;;25.15;54.25
55801;BME280;41730;51.960;20.158;2022-08-01T07:39:27;99925.17;;;25.14;53.91
55801;BME280;41730;51.960;20.158;2022-08-01T07:41:56;99928.38;;;25.11;54.66
55801;BME280;41730;51.960;20.158;2022-08-01T07:44:35;99928.81;;;25.27;55.19
55801;BME280;41730;51.960;20.158;2022-08-01T07:47:05;99933.02;;;25.42;55.20
55801;BME280;41730;51.960;20.158;2022-08-01T07:49:35;99934.52;;;25.49;54.62
55801;BME280;41730;51.960;20.158;2022-08-01T07:52:08;99934.98;;;25.64;54.25
55801;BME280;41730;51.960;20.158;2022-08-01T07:54:37;99929.11;;;25.86;54.04
55801;BME280;41730;51.960;20.158;2022-08-01T07:57:07;99927.23;;;25.88;53.81
55801;BME280;41730;51.960;20.158;2022-08-01T07:59:36;99921.45;;;25.83;54.05
55801;BME280;41730;51.960;20.158;2022-08-01T08:02:05;99917.46;;;25.89;54.32
55801;BME280;41730;51.960;20.158;2022-08-01T08:04:36;99922.05;;;26.00;54.29
55801;BME280;41730;51.960;20.158;2022-08-01T08:07:05;99919.11;;;26.08;54.06
55801;BME280;41730;51.960;20.158;2022-08-01T08:09:37;99918.90;;;26.08;53.78
55801;BME280;41730;51.960;20.158;2022-08-01T08:12:07;99919.70;;;26.08;52.81
55801;BME280;41730;51.960;20.158;2022-08-01T08:14:37;99919.45;;;26.01;52.08
55801;BME280;41730;51.960;20.158;2022-08-01T08:17:07;99918.19;;;25.93;52.67
55801;BME280;41730;51.960;20.158;2022-08-01T08:19:36;99915.77;;;25.98;52.75
55801;BME280;41730;51.960;20.158;2022-08-01T08:22:08;99915.66;;;26.02;53.28
55801;BME280;41730;51.960;20.158;2022-08-01T08:24:38;99915.64;;;26.19;52.47
55801;BME280;41730;51.960;20.158;2022-08-01T08:27:14;99921.64;;;26.17;51.66
55801;BME280;41730;51.960;20.158;2022-08-01T08:29:44;99918.70;;;26.11;52.02
55801;BME280;41730;51.960;20.158;2022-08-01T08:32:14;99921.15;;;26.12;52.07
55801;BME280;41730;51.960;20.158;2022-08-01T08:34:44;99923.91;;;26.20;51.10
55801;BME280;41730;51.960;20.158;2022-08-01T08:37:16;99921.08;;;26.21;50.59
55801;BME280;41730;51.960;20.158;2022-08-01T08:39:48;99922.98;;;26.12;50.63
55801;BME280;41730;51.960;20.158;2022-08-01T08:42:19;99918.60;;;26.07;51.06
55801;BME280;41730;51.960;20.158;2022-08-01T08:44:48;99923.69;;;26.15;50.34
55801;BME280;41730;51.960;20.158;2022-08-01T08:47:18;99926.77;;;26.12;48.25
55801;BME280;41730;51.960;20.158;2022-08-01T08:49:53;99924.23;;;26.00;49.09
55801;BME280;41730;51.960;20.158;2022-08-01T08:52:21;99924.75;;;25.97;49.24
55801;BME280;41730;51.960;20.158;2022-08-01T08:54:52;99927.69;;;26.08;50.16
55801;BME280;41730;51.960;20.158;2022-08-01T08:57:22;99926.32;;;26.27;49.81
55801;BME280;41730;51.960;20.158;2022-08-01T08:59:52;99917.02;;;26.36;50.30
55801;BME280;41730;51.960;20.158;2022-08-01T09:02:22;99915.71;;;26.43;51.09
55801;BME280;41730;51.960;20.158;2022-08-01T09:04:52;99921.27;;;26.58;50.24
55801;BME280;41730;51.960;20.158;2022-08-01T09:07:22;99924.20;;;26.73;49.41
55801;BME280;41730;51.960;20.158;2022-08-01T09:09:54;99925.02;;;26.82;48.87
55801;BME280;41730;51.960;20.158;2022-08-01T09:12:23;99927.70;;;26.89;48.62
55801;BME280;41730;51.960;20.158;2022-08-01T09:14:53;99926.73;;;26.83;47.58
55801;BME280;41730;51.960;20.158;2022-08-01T09:17:23;99928.05;;;26.60;47.68
55801;BME280;41730;51.960;20.158;2022-08-01T09:19:54;99922.56;;;26.40;48.17
55801;BME280;41730;51.960;20.158;2022-08-01T09:22:26;99924.23;;;26.40;47.98
55801;BME280;41730;51.960;20.158;2022-08-01T09:25:08;99925.34;;;26.50;47.82
55801;BME280;41730;51.960;20.158;2022-08-01T09:27:39;99922.73;;;26.61;48.09
55801;BME280;41730;51.960;20.158;2022-08-01T09:30:15;99927.41;;;26.63;47.73
55801;BME280;41730;51.960;20.158;2022-08-01T09:32:59;99924.09;;;26.65;47.25
55801;BME280;41730;51.960;20.158;2022-08-01T09:35:54;99925.62;;;26.69;47.59
55801;BME280;41730;51.960;20.158;2022-08-01T09:38:25;99926.42;;;26.76;46.90
55801;BME280;41730;51.960;20.158;2022-08-01T09:40:57;99927.44;;;26.84;46.09
55801;BME280;41730;51.960;20.158;2022-08-01T09:43:28;99924.32;;;26.85;46.38
55801;BME280;41730;51.960;20.158;2022-08-01T09:46:02;99930.25;;;26.95;47.48
55801;BME280;41730;51.960;20.158;2022-08-01T09:48:33;99924.34;;;27.06;47.70
55801;BME280;41730;51.960;20.158;2022-08-01T09:51:03;99929.73;;;27.20;46.97
55801;BME280;41730;51.960;20.158;2022-08-01T09:53:45;99929.35;;;27.25;46.25
55801;BME280;41730;51.960;20.158;2022-08-01T09:56:21;99929.80;;;27.33;46.16
55801;BME280;41730;51.960;20.158;2022-08-01T09:58:53;99927.54;;;27.31;45.61
55801;BME280;41730;51.960;20.158;2022-08-01T10:01:39;99928.99;;;27.24;45.60
55801;BME280;41730;51.960;20.158;2022-08-01T10:04:12;99928.27;;;27.25;44.96
55801;BME280;41730;51.960;20.158;2022-08-01T10:06:44;99927.32;;;27.21;45.36
55801;BME280;41730;51.960;20.158;2022-08-01T10:09:14;99928.54;;;27.32;45.61
55801;BME280;41730;51.960;20.158;2022-08-01T10:11:44;99929.70;;;27.47;45.39
55801;BME280;41730;51.960;20.158;2022-08-01T10:14:13;99928.48;;;27.59;45.20
55801;BME280;41730;51.960;20.158;2022-08-01T10:16:46;99927.31;;;27.59;45.55
55801;BME280;41730;51.960;20.158;2022-08-01T10:19:23;99925.10;;;27.56;45.86
55801;BME280;41730;51.960;20.158;2022-08-01T10:21:57;99924.77;;;27.63;45.28
55801;BME280;41730;51.960;20.158;2022-08-01T10:24:29;99921.60;;;27.78;45.07
55801;BME280;41730;51.960;20.158;2022-08-01T10:27:04;99921.69;;;27.90;45.13
55801;BME280;41730;51.960;20.158;2022-08-01T10:29:41;99924.31;;;27.92;45.58
55801;BME280;41730;51.960;20.158;2022-08-01T10:32:15;99920.48;;;27.90;45.59
55801;BME280;41730;51.960;20.158;2022-08-01T10:34:45;99919.94;;;27.92;45.39
55801;BME280;41730;51.960;20.158;2022-08-01T10:37:16;99918.70;;;27.88;45.74
55801;BME280;41730;51.960;20.158;2022-08-01T10:39:46;99916.90;;;27.78;45.67
55801;BME280;41730;51.960;20.158;2022-08-01T10:42:16;99918.52;;;27.81;45.62
55801;BME280;41730;51.960;20.158;2022-08-01T10:44:47;99914.23;;;27.87;45.46
55801;BME280;41730;51.960;20.158;2022-08-01T10:47:23;99913.55;;;27.87;45.00
55801;BME280;41730;51.960;20.158;2022-08-01T10:50:21;99911.38;;;27.91;44.68
55801;BME280;41730;51.960;20.158;2022-08-01T10:53:11;99913.41;;;27.93;44.73
55801;BME280;41730;51.960;20.158;2022-08-01T10:55:49;99908.50;;;27.89;45.12
55801;BME280;41730;51.960;20.158;2022-08-01T10:58:23;99907.97;;;27.86;45.89
55801;BME280;41730;51.960;20.158;2022-08-01T11:01:21;99908.19;;;27.87;45.96
55801;BME280;41730;51.960;20.158;2022-08-01T11:04:10;99906.62;;;27.86;45.15
55801;BME280;41730;51.960;20.158;2022-08-01T11:06:52;99902.42;;;27.84;45.00
55801;BME280;41730;51.960;20.158;2022-08-01T11:12:10;99898.66;;;27.93;45.25
55801;BME280;41730;51.960;20.158;2022-08-01T11:15:21;99892.38;;;27.81;45.56
55801;BME280;41730;51.960;20.158;2022-08-01T11:18:00;99894.44;;;27.58;46.30
55801;BME280;41730;51.960;20.158;2022-08-01T11:20:31;99897.52;;;27.40;46.48
55801;BME280;41730;51.960;20.158;2022-08-01T11:23:24;99900.64;;;27.47;46.51
55801;BME280;41730;51.960;20.158;2022-08-01T11:26:14;99897.72;;;27.56;46.43
55801;BME280;41730;51.960;20.158;2022-08-01T11:29:09;99896.32;;;27.54;46.63
55801;BME280;41730;51.960;20.158;2022-08-01T11:31:50;99899.29;;;27.53;46.93
55801;BME280;41730;51.960;20.158;2022-08-01T11:34:20;99899.77;;;27.60;47.08
55801;BME280;41730;51.960;20.158;2022-08-01T11:37:24;99901.45;;;27.56;46.25
55801;BME280;41730;51.960;20.158;2022-08-01T11:40:16;99902.72;;;27.49;45.90
55801;BME280;41730;51.960;20.158;2022-08-01T11:42:47;99896.29;;;27.45;46.11
55801;BME280;41730;51.960;20.158;2022-08-01T11:45:17;99897.60;;;27.32;45.90
55801;BME280;41730;51.960;20.158;2022-08-01T11:47:47;99897.53;;;27.25;46.26
55801;BME280;41730;51.960;20.158;2022-08-01T11:50:34;99905.05;;;27.32;45.94
55801;BME280;41730;51.960;20.158;2022-08-01T11:53:05;99897.20;;;27.45;45.62
55801;BME280;41730;51.960;20.158;2022-08-01T11:55:35;99900.33;;;27.51;44.82
55801;BME280;41730;51.960;20.158;2022-08-01T11:58:07;99902.06;;;27.52;44.99
55801;BME280;41730;51.960;20.158;2022-08-01T12:00:58;99903.39;;;27.57;45.00
55801;BME280;41730;51.960;20.158;2022-08-01T12:03:28;99901.97;;;27.59;44.75
55801;BME280;41730;51.960;20.158;2022-08-01T12:06:00;99898.92;;;27.54;44.40
55801;BME280;41730;51.960;20.158;2022-08-01T12:08:31;99896.23;;;27.58;44.29
55801;BME280;41730;51.960;20.158;2022-08-01T12:11:04;99901.85;;;27.58;44.32
55801;BME280;41730;51.960;20.158;2022-08-01T12:13:41;99902.42;;;27.60;44.29
55801;BME280;41730;51.960;20.158;2022-08-01T12:16:13;99896.95;;;27.62;43.85
55801;BME280;41730;51.960;20.158;2022-08-01T12:18:44;99895.59;;;27.62;43.77
55801;BME280;41730;51.960;20.158;2022-08-01T12:21:14;99896.05;;;27.60;44.34
55801;BME280;41730;51.960;20.158;2022-08-01T12:23:44;99892.40;;;27.73;44.00
55801;BME280;41730;51.960;20.158;2022-08-01T12:26:13;99892.60;;;27.85;43.65
55801;BME280;41730;51.960;20.158;2022-08-01T12:28:59;99891.83;;;27.78;43.37
55801;BME280;41730;51.960;20.158;2022-08-01T12:31:35;99891.84;;;27.75;43.79
55801;BME280;41730;51.960;20.158;2022-08-01T12:34:25;99891.00;;;27.76;43.08
55801;BME280;41730;51.960;20.158;2022-08-01T12:36:57;99884.81;;;27.71;41.34
55801;BME280;41730;51.960;20.158;2022-08-01T12:39:36;99888.31;;;27.67;41.92
55801;BME280;41730;51.960;20.158;2022-08-01T12:42:08;99880.69;;;27.59;43.03
55801;BME280;41730;51.960;20.158;2022-08-01T12:44:40;99882.00;;;27.64;43.01
55801;BME280;41730;51.960;20.158;2022-08-01T12:47:12;99880.41;;;27.70;41.66
55801;BME280;41730;51.960;20.158;2022-08-01T12:49:43;99880.61;;;27.57;41.52
55801;BME280;41730;51.960;20.158;2022-08-01T12:52:13;99882.91;;;27.35;42.08
55801;BME280;41730;51.960;20.158;2022-08-01T12:55:10;99879.77;;;27.19;42.73
55801;BME280;41730;51.960;20.158;2022-08-01T12:57:42;99879.20;;;27.06;43.23
55801;BME280;41730;51.960;20.158;2022-08-01T13:00:16;99881.34;;;27.05;43.54
55801;BME280;41730;51.960;20.158;2022-08-01T13:03:00;99881.36;;;27.12;43.77
55801;BME280;41730;51.960;20.158;2022-08-01T13:05:42;99882.11;;;27.20;44.14
55801;BME280;41730;51.960;20.158;2022-08-01T13:08:13;99881.98;;;27.32;44.47
55801;BME280;41730;51.960;20.158;2022-08-01T13:10:43;99882.14;;;27.41;44.56
55801;BME280;41730;51.960;20.158;2022-08-01T13:13:13;99879.34;;;27.45;44.86
55801;BME280;41730;51.960;20.158;2022-08-01T13:16:06;99885.55;;;27.45;45.05
55801;BME280;41730;51.960;20.158;2022-08-01T13:18:49;99885.43;;;27.51;44.89
55801;BME280;41730;51.960;20.158;2022-08-01T13:21:20;99885.15;;;27.58;44.77
55801;BME280;41730;51.960;20.158;2022-08-01T13:24:04;99883.84;;;27.68;45.07
55801;BME280;41730;51.960;20.158;2022-08-01T13:26:46;99884.11;;;27.85;44.35
55801;BME280;41730;51.960;20.158;2022-08-01T13:29:17;99885.13;;;27.91;44.01